Time;durP1;ratioP1;P1;durP2;ratioP2;P2;SDS_P1;SDS_P2;PMS_P1;PMS_P2;Temp;Humidity;BMP_temperature;BMP_pressure;BME280_temperature;BME280_humidity;BME280_pressure;Samples;Min_cycle;Max_cycle;Signal;HPM_P1;HPM_P2
2022/12/11 00:02:19;;;;;;;62.65;27.05;;;;;;;;;;5061142;28;20043;-74
2022/12/11 00:04:45;;;;;;;66.43;27.73;;;;;;;;;;5071176;28;20047;-75
2022/12/11 00:07:11;;;;;;;73.88;28.63;;;;;;;;;;5071935;28;20215;-75
2022/12/11 00:09:38;;;;;;;70.57;28.65;;;;;;;;;;5067577;28;20051;-73
2022/12/11 00:12:06;;;;;;;68.20;28.17;;;;;;;;;;5069334;28;20069;-73
2022/12/11 00:14:32;;;;;;;65.88;27.55;;;;;;;;;;5066684;28;20048;-73
2022/12/11 00:17:01;;;;;;;72.60;27.63;;;;;;;;;;5070280;28;20131;-74
2022/12/11 00:19:27;;;;;;;66.38;26.00;;;;;;;;;;5059208;28;20132;-73
2022/12/11 00:21:56;;;;;;;64.93;26.88;;;;;;;;;;5062171;28;20495;-73
2022/12/11 00:24:22;;;;;;;61.85;25.70;;;;;;;;;;5063026;28;20048;-73
2022/12/11 00:26:48;;;;;;;53.50;23.02;;;;;;;;;;5070060;28;20044;-72
2022/12/11 00:29:14;;;;;;;47.38;23.40;;;;;;;;;;5066570;28;20044;-73
2022/12/11 00:31:41;;;;;;;43.63;21.23;;;;;;;;;;5070239;28;20040;-74
2022/12/11 00:34:07;;;;;;;39.72;19.92;;;;;;;;;;5065713;28;20451;-74
2022/12/11 00:36:36;;;;;;;37.03;20.02;;;;;;;;;;5065234;28;20044;-73
2022/12/11 00:39:03;;;;;;;39.22;20.27;;;;;;;;;;5065816;28;20041;-74
2022/12/11 00:41:29;;;;;;;40.05;21.90;;;;;;;;;;5068839;28;20403;-74
2022/12/11 00:43:55;;;;;;;44.70;22.30;;;;;;;;;;5069572;28;20480;-73
2022/12/11 00:46:24;;;;;;;39.40;21.80;;;;;;;;;;5054970;28;20049;-73
2022/12/11 00:48:50;;;;;;;40.90;22.63;;;;;;;;;;5056767;28;20040;-73
2022/12/11 00:51:22;;;;;;;43.65;21.98;;;;;;;;;;5057251;28;20053;-73
2022/12/11 00:53:48;;;;;;;39.65;20.58;;;;;;;;;;5060336;28;20053;-73
2022/12/11 00:56:16;;;;;;;43.45;21.23;;;;;;;;;;5061192;28;20055;-73
2022/12/11 00:58:42;;;;;;;43.25;21.45;;;;;;;;;;5067881;28;20146;-73
2022/12/11 01:01:10;;;;;;;37.42;20.83;;;;;;;;;;5064654;28;20083;-73
2022/12/11 01:03:36;;;;;;;39.58;19.00;;;;;;;;;;5064969;28;20507;-74
2022/12/11 01:06:02;;;;;;;34.80;18.00;;;;;;;;;;5066411;28;20072;-74
2022/12/11 01:08:29;;;;;;;38.38;17.33;;;;;;;;;;5062883;28;20052;-74
2022/12/11 01:11:02;;;;;;;41.42;19.98;;;;;;;;;;5069630;28;20047;-74
2022/12/11 01:13:28;;;;;;;42.95;20.05;;;;;;;;;;5063683;28;20048;-74
2022/12/11 01:15:54;;;;;;;47.08;20.45;;;;;;;;;;5063809;28;20056;-74
2022/12/11 01:18:20;;;;;;;41.55;19.60;;;;;;;;;;5063738;28;20056;-74
2022/12/11 01:20:46;;;;;;;39.58;19.70;;;;;;;;;;5064418;28;20089;-74
2022/12/11 01:23:12;;;;;;;47.28;21.02;;;;;;;;;;5068150;28;20048;-74
2022/12/11 01:25:39;;;;;;;48.42;22.83;;;;;;;;;;5066189;28;20056;-74
2022/12/11 01:28:05;;;;;;;50.33;22.40;;;;;;;;;;5067309;28;20090;-74
2022/12/11 01:30:31;;;;;;;48.47;22.70;;;;;;;;;;5072363;28;20043;-74
2022/12/11 01:32:57;;;;;;;40.88;20.88;;;;;;;;;;5060534;28;20127;-74
2022/12/11 01:35:23;;;;;;;40.80;18.95;;;;;;;;;;5065185;28;20083;-74
2022/12/11 01:37:49;;;;;;;38.58;19.38;;;;;;;;;;5063380;28;20040;-74
2022/12/11 01:40:17;;;;;;;34.58;15.95;;;;;;;;;;5064607;28;20055;-74
2022/12/11 01:42:44;;;;;;;37.45;18.98;;;;;;;;;;5062541;28;20095;-74
2022/12/11 01:45:22;;;;;;;40.70;19.30;;;;;;;;;;5060280;28;20511;-74
2022/12/11 01:47:49;;;;;;;42.70;20.35;;;;;;;;;;5065266;28;20060;-74
2022/12/11 01:50:15;;;;;;;45.03;21.77;;;;;;;;;;5059468;28;20053;-74
2022/12/11 01:52:42;;;;;;;43.90;20.65;;;;;;;;;;5070278;28;20063;-74
2022/12/11 01:55:08;;;;;;;43.53;21.88;;;;;;;;;;5064554;28;20048;-74
2022/12/11 01:57:42;;;;;;;42.08;20.95;;;;;;;;;;5067676;28;20112;-74
2022/12/11 02:00:08;;;;;;;46.28;22.35;;;;;;;;;;5065146;28;20131;-74
2022/12/11 02:02:34;;;;;;;44.78;21.50;;;;;;;;;;5064036;28;20049;-74
2022/12/11 02:05:05;;;;;;;42.30;20.92;;;;;;;;;;5066803;28;20045;-74
2022/12/11 02:07:35;;;;;;;40.75;19.90;;;;;;;;;;5073389;28;20080;-74
2022/12/11 02:10:01;;;;;;;39.45;20.88;;;;;;;;;;5069478;28;20125;-74
2022/12/11 02:12:42;;;;;;;44.00;22.50;;;;;;;;;;5068439;28;20118;-74
2022/12/11 02:15:14;;;;;;;46.45;22.52;;;;;;;;;;5064985;28;20122;-74
2022/12/11 02:17:53;;;;;;;45.45;22.55;;;;;;;;;;5069467;28;20124;-74
2022/12/11 02:20:24;;;;;;;44.28;22.10;;;;;;;;;;5063786;28;20136;-75
2022/12/11 02:23:03;;;;;;;49.05;23.55;;;;;;;;;;5069523;28;20063;-74
2022/12/11 02:25:47;;;;;;;50.85;22.10;;;;;;;;;;5069989;28;20049;-74
2022/12/11 02:28:19;;;;;;;40.75;21.52;;;;;;;;;;5069404;28;20060;-74
2022/12/11 02:30:58;;;;;;;48.55;21.45;;;;;;;;;;5065471;28;20098;-74
2022/12/11 02:33:30;;;;;;;43.13;21.40;;;;;;;;;;5073775;28;20066;-74
2022/12/11 02:35:56;;;;;;;47.25;22.98;;;;;;;;;;5063668;28;20044;-74
2022/12/11 02:38:28;;;;;;;47.95;23.75;;;;;;;;;;5066263;28;20135;-74
2022/12/11 02:40:55;;;;;;;52.67;23.42;;;;;;;;;;5066209;28;20037;-74
2022/12/11 02:43:22;;;;;;;47.95;24.40;;;;;;;;;;5067211;28;21446;-74
2022/12/11 02:45:49;;;;;;;45.78;24.05;;;;;;;;;;5062836;28;20440;-74
2022/12/11 02:48:16;;;;;;;46.97;23.58;;;;;;;;;;5069148;28;20041;-74
2022/12/11 02:50:45;;;;;;;50.83;23.60;;;;;;;;;;5060351;28;20041;-74
2022/12/11 02:53:12;;;;;;;51.17;23.52;;;;;;;;;;5062788;28;20559;-74
2022/12/11 02:55:39;;;;;;;48.55;23.60;;;;;;;;;;5070244;28;20040;-74
2022/12/11 02:58:08;;;;;;;49.30;24.50;;;;;;;;;;5068470;28;20060;-74
2022/12/11 03:00:35;;;;;;;49.25;22.95;;;;;;;;;;5060750;28;20488;-74
2022/12/11 03:03:01;;;;;;;42.70;22.45;;;;;;;;;;5067735;28;20496;-74
2022/12/11 03:05:27;;;;;;;44.72;22.00;;;;;;;;;;5070129;28;20132;-74
2022/12/11 03:07:53;;;;;;;47.17;24.08;;;;;;;;;;5067936;28;20040;-74
2022/12/11 03:10:20;;;;;;;43.80;23.45;;;;;;;;;;5061968;28;20423;-74
2022/12/11 03:12:48;;;;;;;51.30;23.80;;;;;;;;;;5063078;28;20052;-74
2022/12/11 03:15:16;;;;;;;47.35;23.00;;;;;;;;;;5064918;28;20051;-74
2022/12/11 03:17:41;;;;;;;50.10;24.10;;;;;;;;;;5064303;28;20056;-74
2022/12/11 03:20:26;;;;;;;44.63;22.90;;;;;;;;;;5067469;28;20071;-74
2022/12/11 03:23:11;;;;;;;37.85;20.75;;;;;;;;;;5069273;28;20044;-74
2022/12/11 03:25:46;;;;;;;35.42;20.15;;;;;;;;;;5071031;28;20040;-75
2022/12/11 03:28:31;;;;;;;33.88;17.77;;;;;;;;;;5064669;28;20075;-74
2022/12/11 03:30:57;;;;;;;34.47;17.95;;;;;;;;;;5061312;28;20045;-74
2022/12/11 03:33:26;;;;;;;29.65;17.75;;;;;;;;;;5069184;28;20057;-74
2022/12/11 03:35:56;;;;;;;31.58;17.85;;;;;;;;;;5066181;28;20048;-74
2022/12/11 03:38:36;;;;;;;37.08;20.75;;;;;;;;;;5065773;28;20515;-75
2022/12/11 03:41:02;;;;;;;37.75;20.73;;;;;;;;;;5059797;28;20056;-74
2022/12/11 03:43:30;;;;;;;38.40;19.83;;;;;;;;;;5067520;28;20507;-74
2022/12/11 03:45:58;;;;;;;38.10;21.08;;;;;;;;;;5063197;28;20067;-74
2022/12/11 03:48:26;;;;;;;44.20;20.92;;;;;;;;;;5066939;28;20511;-74
2022/12/11 03:50:53;;;;;;;35.22;20.23;;;;;;;;;;5065817;28;20480;-74
2022/12/11 03:53:20;;;;;;;36.90;21.10;;;;;;;;;;5062515;28;20048;-74
2022/12/11 03:55:46;;;;;;;38.53;21.90;;;;;;;;;;5070084;28;20048;-74
2022/12/11 03:58:12;;;;;;;40.13;21.60;;;;;;;;;;5060288;28;20065;-74
2022/12/11 04:00:39;;;;;;;37.38;20.80;;;;;;;;;;5068755;28;20464;-74
2022/12/11 04:03:15;;;;;;;38.58;20.58;;;;;;;;;;5069714;28;20048;-74
2022/12/11 04:05:42;;;;;;;35.30;20.13;;;;;;;;;;5067293;28;20121;-74
2022/12/11 04:08:08;;;;;;;31.80;19.25;;;;;;;;;;5067965;28;20041;-74
2022/12/11 04:10:34;;;;;;;30.60;17.38;;;;;;;;;;5066946;28;20052;-74
2022/12/11 04:13:00;;;;;;;27.98;17.42;;;;;;;;;;5067934;28;20498;-74
2022/12/11 04:15:26;;;;;;;34.70;19.58;;;;;;;;;;5066985;28;20553;-74
2022/12/11 04:26:07;;;;;;;32.42;18.83;;;;;;;;;;5063313;28;20448;-74
2022/12/11 04:28:34;;;;;;;36.53;20.77;;;;;;;;;;5066399;28;20033;-74
2022/12/11 04:31:00;;;;;;;41.15;21.35;;;;;;;;;;5064173;28;20068;-74
2022/12/11 04:33:26;;;;;;;34.83;20.27;;;;;;;;;;5065528;28;20055;-74
2022/12/11 04:35:52;;;;;;;32.95;19.20;;;;;;;;;;5069274;28;20053;-74
2022/12/11 04:38:18;;;;;;;35.58;20.25;;;;;;;;;;5064973;28;20048;-74
2022/12/11 04:40:44;;;;;;;38.25;20.75;;;;;;;;;;5063240;28;20053;-74
2022/12/11 04:43:10;;;;;;;34.67;20.35;;;;;;;;;;5061009;28;20063;-74
2022/12/11 04:45:36;;;;;;;36.08;20.67;;;;;;;;;;5065905;28;20048;-74
2022/12/11 04:48:02;;;;;;;39.72;21.95;;;;;;;;;;5068370;28;20480;-74
2022/12/11 04:50:28;;;;;;;37.42;20.23;;;;;;;;;;5068799;28;20109;-74
2022/12/11 04:52:54;;;;;;;37.30;19.98;;;;;;;;;;5061696;28;20076;-74
2022/12/11 04:55:20;;;;;;;33.97;19.42;;;;;;;;;;5063744;28;20041;-74
2022/12/11 04:57:46;;;;;;;36.38;21.02;;;;;;;;;;5066695;28;20044;-74
2022/12/11 05:00:13;;;;;;;36.63;20.58;;;;;;;;;;5052974;28;20049;-74
2022/12/11 05:02:39;;;;;;;37.03;20.33;;;;;;;;;;5066827;28;20052;-74
2022/12/11 05:05:08;;;;;;;32.78;19.80;;;;;;;;;;5068554;28;20064;-74
2022/12/11 05:07:34;;;;;;;34.53;20.20;;;;;;;;;;5064812;28;20137;-74
2022/12/11 05:10:00;;;;;;;37.08;21.50;;;;;;;;;;5068550;28;20426;-74
2022/12/11 05:12:26;;;;;;;36.05;21.40;;;;;;;;;;5067877;28;20040;-74
2022/12/11 05:14:53;;;;;;;37.17;21.20;;;;;;;;;;5057831;28;20040;-74
2022/12/11 05:17:19;;;;;;;37.22;21.48;;;;;;;;;;5061737;28;20048;-74
2022/12/11 05:19:47;;;;;;;33.40;20.63;;;;;;;;;;5065525;28;20040;-74
2022/12/11 05:22:13;;;;;;;35.58;21.10;;;;;;;;;;5066691;28;20052;-74
2022/12/11 05:24:39;;;;;;;33.10;20.35;;;;;;;;;;5068804;28;20040;-74
2022/12/11 05:27:07;;;;;;;35.72;20.42;;;;;;;;;;5068157;28;20041;-74
2022/12/11 05:29:33;;;;;;;33.90;21.02;;;;;;;;;;5065651;28;20047;-74
2022/12/11 05:31:59;;;;;;;37.90;20.73;;;;;;;;;;5067896;28;20085;-74
2022/12/11 05:34:25;;;;;;;34.67;20.05;;;;;;;;;;5062275;28;21520;-74
2022/12/11 05:36:51;;;;;;;33.13;19.88;;;;;;;;;;5058455;28;20511;-74
2022/12/11 05:39:17;;;;;;;37.92;21.45;;;;;;;;;;5062078;28;20052;-74
2022/12/11 05:41:43;;;;;;;35.78;20.88;;;;;;;;;;5064655;28;20047;-74
2022/12/11 05:44:12;;;;;;;38.67;21.35;;;;;;;;;;5066282;28;20044;-74
2022/12/11 05:46:39;;;;;;;36.33;22.55;;;;;;;;;;5060926;28;20094;-74
2022/12/11 05:49:05;;;;;;;39.78;21.15;;;;;;;;;;5068759;28;20464;-74
2022/12/11 05:51:34;;;;;;;38.72;22.50;;;;;;;;;;5066249;28;20532;-74
2022/12/11 05:54:01;;;;;;;37.65;21.52;;;;;;;;;;5064747;28;20049;-74
2022/12/11 05:56:28;;;;;;;39.50;22.40;;;;;;;;;;5066915;28;20415;-74
2022/12/11 05:58:54;;;;;;;37.15;21.25;;;;;;;;;;5063896;28;20484;-74
2022/12/11 06:01:26;;;;;;;37.92;21.75;;;;;;;;;;5061799;28;20458;-74
2022/12/11 06:03:53;;;;;;;40.85;21.40;;;;;;;;;;5062304;28;20070;-74
2022/12/11 06:06:19;;;;;;;35.67;20.48;;;;;;;;;;5060322;28;20134;-74
2022/12/11 06:08:45;;;;;;;38.97;22.52;;;;;;;;;;5066115;28;20041;-74
2022/12/11 06:11:15;;;;;;;37.00;21.73;;;;;;;;;;5063379;28;20040;-74
2022/12/11 06:13:41;;;;;;;38.55;21.88;;;;;;;;;;5068397;28;20123;-74
2022/12/11 06:16:08;;;;;;;37.00;22.05;;;;;;;;;;5065331;28;20122;-74
2022/12/11 06:18:35;;;;;;;37.78;21.90;;;;;;;;;;5065203;28;20135;-74
2022/12/11 06:21:01;;;;;;;37.20;22.25;;;;;;;;;;5061468;28;20183;-75
2022/12/11 06:23:27;;;;;;;35.83;21.63;;;;;;;;;;5065005;28;20136;-74
2022/12/11 06:25:53;;;;;;;38.85;23.17;;;;;;;;;;5072271;28;20044;-74
2022/12/11 06:28:19;;;;;;;37.90;22.08;;;;;;;;;;5071309;28;20191;-74
2022/12/11 06:30:46;;;;;;;38.80;23.73;;;;;;;;;;5067311;28;20070;-74
2022/12/11 06:33:12;;;;;;;42.17;24.42;;;;;;;;;;5062680;28;20518;-74
2022/12/11 06:35:38;;;;;;;40.05;24.63;;;;;;;;;;5058446;28;20063;-74
2022/12/11 06:38:04;;;;;;;36.60;22.10;;;;;;;;;;5065445;28;20548;-74
2022/12/11 06:40:30;;;;;;;38.80;24.92;;;;;;;;;;5062322;28;20044;-74
2022/12/11 06:42:56;;;;;;;35.50;22.30;;;;;;;;;;5066143;28;20032;-74
2022/12/11 06:45:22;;;;;;;38.55;23.50;;;;;;;;;;5063172;28;20049;-74
2022/12/11 06:47:48;;;;;;;36.85;22.27;;;;;;;;;;5065762;28;20047;-74
2022/12/11 06:50:14;;;;;;;38.67;23.50;;;;;;;;;;5067647;28;20048;-73
2022/12/11 06:52:40;;;;;;;37.65;23.08;;;;;;;;;;5066636;28;20389;-74
2022/12/11 06:55:06;;;;;;;37.85;21.83;;;;;;;;;;5067749;28;20081;-74
2022/12/11 06:57:33;;;;;;;35.72;21.48;;;;;;;;;;5069378;28;20044;-74
2022/12/11 06:59:59;;;;;;;37.00;23.10;;;;;;;;;;5067069;28;20044;-74
2022/12/11 07:02:25;;;;;;;38.50;23.42;;;;;;;;;;5067469;28;20515;-74
2022/12/11 07:04:51;;;;;;;35.00;22.52;;;;;;;;;;5068611;28;20044;-74
2022/12/11 07:07:18;;;;;;;32.22;21.85;;;;;;;;;;5068974;28;20415;-74
2022/12/11 07:09:44;;;;;;;34.25;21.40;;;;;;;;;;5064462;28;20051;-74
2022/12/11 07:12:10;;;;;;;35.05;20.90;;;;;;;;;;5066707;28;20040;-74
2022/12/11 07:14:36;;;;;;;37.50;24.85;;;;;;;;;;5067975;28;20147;-74
2022/12/11 07:17:03;;;;;;;31.85;21.50;;;;;;;;;;5068505;28;20155;-73
2022/12/11 07:19:29;;;;;;;36.35;23.80;;;;;;;;;;5066980;28;20431;-74
2022/12/11 07:21:55;;;;;;;36.28;23.40;;;;;;;;;;5066976;28;20044;-74
2022/12/11 07:24:21;;;;;;;61.42;40.42;;;;;;;;;;5065060;28;20048;-74
2022/12/11 07:26:47;;;;;;;90.05;54.58;;;;;;;;;;5071841;28;20048;-74
2022/12/11 07:29:13;;;;;;;76.53;48.72;;;;;;;;;;5066554;28;20041;-74
2022/12/11 07:31:39;;;;;;;72.53;48.97;;;;;;;;;;5063476;28;20488;-74
2022/12/11 07:34:06;;;;;;;58.83;38.78;;;;;;;;;;5060883;28;20145;-74
2022/12/11 07:36:32;;;;;;;70.68;45.15;;;;;;;;;;5067493;28;20443;-74
2022/12/11 07:38:58;;;;;;;56.75;37.40;;;;;;;;;;5061851;28;20041;-74
2022/12/11 07:41:26;;;;;;;48.05;30.88;;;;;;;;;;5066493;28;20120;-74
2022/12/11 07:43:53;;;;;;;67.70;43.03;;;;;;;;;;5062050;28;20053;-74
2022/12/11 07:46:21;;;;;;;58.10;33.90;;;;;;;;;;5066662;28;20120;-73
2022/12/11 07:48:47;;;;;;;58.50;32.85;;;;;;;;;;5066859;28;20048;-74
2022/12/11 07:51:15;;;;;;;74.05;42.20;;;;;;;;;;5068590;28;20393;-74
2022/12/11 07:53:42;;;;;;;82.53;48.67;;;;;;;;;;5067112;28;20045;-74
2022/12/11 07:56:08;;;;;;;61.55;31.58;;;;;;;;;;5067503;28;20143;-74
2022/12/11 07:58:34;;;;;;;63.38;33.28;;;;;;;;;;5063416;28;20045;-74
2022/12/11 08:01:01;;;;;;;56.72;29.30;;;;;;;;;;5066199;28;20047;-74
2022/12/11 08:03:27;;;;;;;57.35;28.25;;;;;;;;;;5066023;28;20056;-74
2022/12/11 08:05:53;;;;;;;54.05;26.27;;;;;;;;;;5063947;28;20534;-74
2022/12/11 08:08:19;;;;;;;69.18;36.33;;;;;;;;;;5064849;28;20048;-74
2022/12/11 08:10:45;;;;;;;89.43;45.13;;;;;;;;;;5065955;28;20044;-74
2022/12/11 08:13:11;;;;;;;88.82;45.42;;;;;;;;;;5067458;28;20041;-74
2022/12/11 08:15:37;;;;;;;147.45;76.20;;;;;;;;;;5065611;28;20045;-74
2022/12/11 08:18:04;;;;;;;68.78;35.42;;;;;;;;;;5065334;28;20123;-74
2022/12/11 08:20:30;;;;;;;60.08;31.10;;;;;;;;;;5059930;28;20053;-73
2022/12/11 08:22:56;;;;;;;60.40;30.10;;;;;;;;;;5066887;28;20521;-74
2022/12/11 08:25:22;;;;;;;67.72;32.28;;;;;;;;;;5072022;28;20051;-74
2022/12/11 08:27:48;;;;;;;64.90;29.17;;;;;;;;;;5063720;28;20079;-74
2022/12/11 08:30:14;;;;;;;68.35;33.75;;;;;;;;;;5065900;28;20052;-74
2022/12/11 08:32:41;;;;;;;57.85;32.22;;;;;;;;;;5061577;28;20110;-74
2022/12/11 08:35:07;;;;;;;60.42;30.55;;;;;;;;;;5063731;28;20060;-74
2022/12/11 08:37:33;;;;;;;59.75;27.92;;;;;;;;;;5065058;28;20048;-74
2022/12/11 08:39:59;;;;;;;60.15;29.98;;;;;;;;;;5067463;28;20618;-74
2022/12/11 08:42:26;;;;;;;62.75;30.38;;;;;;;;;;5064201;28;20060;-74
2022/12/11 08:44:52;;;;;;;59.58;30.88;;;;;;;;;;5062794;28;20056;-74
2022/12/11 08:47:18;;;;;;;56.22;26.17;;;;;;;;;;5062095;28;20500;-74
2022/12/11 08:49:44;;;;;;;58.67;27.08;;;;;;;;;;5066042;28;20036;-73
2022/12/11 08:52:10;;;;;;;59.10;28.08;;;;;;;;;;5066453;28;20050;-74
2022/12/11 08:54:36;;;;;;;53.67;27.77;;;;;;;;;;5063506;28;20078;-74
2022/12/11 08:57:03;;;;;;;54.85;25.23;;;;;;;;;;5069327;28;20052;-74
2022/12/11 08:59:29;;;;;;;54.13;27.02;;;;;;;;;;5063972;28;20099;-73
2022/12/11 09:01:55;;;;;;;53.95;26.70;;;;;;;;;;5065900;28;20136;-74
2022/12/11 09:04:21;;;;;;;51.22;25.83;;;;;;;;;;5061824;28;20103;-73
2022/12/11 09:06:48;;;;;;;55.53;29.02;;;;;;;;;;5067703;28;20047;-74
2022/12/11 09:09:14;;;;;;;55.17;28.38;;;;;;;;;;5066108;28;20492;-74
2022/12/11 09:11:40;;;;;;;52.50;26.65;;;;;;;;;;5068256;28;20068;-74
2022/12/11 09:14:06;;;;;;;55.72;26.33;;;;;;;;;;5065881;28;20131;-73
2022/12/11 09:16:32;;;;;;;45.63;25.25;;;;;;;;;;5065421;28;20126;-73
2022/12/11 09:18:59;;;;;;;50.90;25.98;;;;;;;;;;5058912;28;20131;-73
2022/12/11 09:21:27;;;;;;;50.17;25.45;;;;;;;;;;5062387;28;20045;-73
2022/12/11 09:23:54;;;;;;;49.30;25.50;;;;;;;;;;5054877;28;20128;-73
2022/12/11 09:26:20;;;;;;;44.58;24.85;;;;;;;;;;5066333;28;20439;-73
2022/12/11 09:28:47;;;;;;;52.20;27.85;;;;;;;;;;5066135;28;20041;-73
2022/12/11 09:31:14;;;;;;;46.05;24.40;;;;;;;;;;5065353;28;20063;-74
2022/12/11 09:33:41;;;;;;;50.85;24.60;;;;;;;;;;5067799;28;20052;-73
2022/12/11 09:36:07;;;;;;;47.78;23.27;;;;;;;;;;5068765;28;20056;-74
2022/12/11 09:38:35;;;;;;;43.83;24.13;;;;;;;;;;5070239;28;20559;-74
2022/12/11 09:41:01;;;;;;;44.83;24.52;;;;;;;;;;5058487;28;20412;-73
2022/12/11 09:43:36;;;;;;;45.80;25.33;;;;;;;;;;5058225;28;20131;-75
2022/12/11 09:46:03;;;;;;;40.38;22.75;;;;;;;;;;5059406;28;20080;-74
2022/12/11 09:48:32;;;;;;;45.05;23.40;;;;;;;;;;5062239;28;20051;-74
2022/12/11 09:51:02;;;;;;;47.55;26.23;;;;;;;;;;5060617;28;20051;-75
2022/12/11 09:53:33;;;;;;;40.13;22.70;;;;;;;;;;5065092;28;20265;-71
2022/12/11 09:56:16;;;;;;;42.28;25.25;;;;;;;;;;5060406;28;20182;-76
2022/12/11 09:58:57;;;;;;;40.28;24.60;;;;;;;;;;5068940;28;20045;-76
2022/12/11 10:01:29;;;;;;;40.08;23.52;;;;;;;;;;5062295;28;20484;-75
2022/12/11 10:04:16;;;;;;;39.60;21.73;;;;;;;;;;5070514;28;20032;-72
2022/12/11 10:06:47;;;;;;;39.78;22.80;;;;;;;;;;5052452;28;20056;-74
2022/12/11 10:09:24;;;;;;;37.63;22.35;;;;;;;;;;5058811;28;20033;-75
2022/12/11 10:11:56;;;;;;;37.10;22.15;;;;;;;;;;5061924;28;20075;-73
2022/12/11 10:14:28;;;;;;;35.70;22.27;;;;;;;;;;5054932;28;20041;-74
2022/12/11 10:16:59;;;;;;;47.15;28.45;;;;;;;;;;5062701;28;20106;-72
2022/12/11 10:19:27;;;;;;;34.78;21.55;;;;;;;;;;5064843;28;20048;-73
2022/12/11 10:21:54;;;;;;;38.90;22.27;;;;;;;;;;5062416;28;20048;-73
2022/12/11 10:24:25;;;;;;;33.60;21.63;;;;;;;;;;5066477;28;20045;-74
2022/12/11 10:26:54;;;;;;;33.22;21.27;;;;;;;;;;5063621;28;20036;-72
2022/12/11 10:29:20;;;;;;;33.92;22.25;;;;;;;;;;5070048;28;20124;-74
2022/12/11 10:31:50;;;;;;;33.13;20.90;;;;;;;;;;5066627;28;20094;-73
2022/12/11 10:34:22;;;;;;;32.90;20.45;;;;;;;;;;5062279;28;20067;-73
2022/12/11 10:36:48;;;;;;;33.65;20.73;;;;;;;;;;5069900;28;20047;-72
2022/12/11 10:39:19;;;;;;;35.72;20.38;;;;;;;;;;5066945;28;20098;-73
2022/12/11 10:41:46;;;;;;;31.30;20.35;;;;;;;;;;5066389;28;20052;-74
2022/12/11 10:44:16;;;;;;;31.15;20.48;;;;;;;;;;5070203;28;20412;-74
2022/12/11 10:46:42;;;;;;;31.77;19.70;;;;;;;;;;5070443;28;20147;-75
2022/12/11 10:49:20;;;;;;;30.08;19.27;;;;;;;;;;5065090;28;20053;-74
2022/12/11 10:51:46;;;;;;;28.75;18.55;;;;;;;;;;5069432;28;20044;-74
2022/12/11 10:54:17;;;;;;;30.50;19.75;;;;;;;;;;5070331;28;20613;-73
2022/12/11 10:56:46;;;;;;;28.45;19.00;;;;;;;;;;5068817;28;20070;-73
2022/12/11 10:59:22;;;;;;;29.33;19.42;;;;;;;;;;5067194;28;20411;-74
2022/12/11 11:01:48;;;;;;;32.45;19.63;;;;;;;;;;5068762;28;20046;-74
2022/12/11 11:04:15;;;;;;;28.92;19.35;;;;;;;;;;5067978;28;20123;-73
2022/12/11 11:06:41;;;;;;;28.77;18.48;;;;;;;;;;5065532;28;20051;-73
2022/12/11 11:09:30;;;;;;;31.85;22.58;;;;;;;;;;5070550;28;20053;-73
2022/12/11 11:11:59;;;;;;;32.58;19.50;;;;;;;;;;5069373;28;20029;-74
2022/12/11 11:14:25;;;;;;;29.17;18.45;;;;;;;;;;5064961;28;20044;-73
2022/12/11 11:16:54;;;;;;;29.15;19.52;;;;;;;;;;5064185;28;20045;-73
2022/12/11 11:19:22;;;;;;;27.67;17.90;;;;;;;;;;5066991;28;20132;-73
2022/12/11 11:21:54;;;;;;;25.95;17.40;;;;;;;;;;5066097;28;20061;-73
2022/12/11 11:24:40;;;;;;;27.58;17.73;;;;;;;;;;5065610;28;20094;-74
2022/12/11 11:27:12;;;;;;;26.63;17.20;;;;;;;;;;5062539;28;20056;-73
2022/12/11 11:29:38;;;;;;;25.20;16.67;;;;;;;;;;5063620;28;20044;-74
2022/12/11 11:32:17;;;;;;;23.45;15.98;;;;;;;;;;5062663;28;20388;-74
2022/12/11 11:34:43;;;;;;;22.23;14.10;;;;;;;;;;5067828;28;20799;-73
2022/12/11 11:37:22;;;;;;;26.17;16.52;;;;;;;;;;5060438;28;20045;-74
2022/12/11 11:39:50;;;;;;;23.85;15.98;;;;;;;;;;5064184;28;20059;-74
2022/12/11 11:42:30;;;;;;;23.15;15.30;;;;;;;;;;5058719;28;20059;-74
2022/12/11 11:44:56;;;;;;;26.23;16.92;;;;;;;;;;5062922;28;20426;-74
2022/12/11 11:47:25;;;;;;;24.73;15.30;;;;;;;;;;5066868;28;20055;-74
2022/12/11 11:50:07;;;;;;;21.27;13.43;;;;;;;;;;5062565;28;20435;-74
2022/12/11 11:52:36;;;;;;;19.95;12.57;;;;;;;;;;5063055;28;20045;-74
2022/12/11 11:55:08;;;;;;;20.77;14.43;;;;;;;;;;5066614;28;20132;-74
2022/12/11 11:57:41;;;;;;;19.98;12.70;;;;;;;;;;5062096;28;20045;-74
2022/12/11 12:00:27;;;;;;;23.20;13.77;;;;;;;;;;5061848;28;20493;-73
2022/12/11 12:03:01;;;;;;;22.90;15.18;;;;;;;;;;5066436;28;20404;-74
2022/12/11 12:05:27;;;;;;;;;;;;;;;;;;5062700;28;20036;-74
2022/12/11 12:08:11;;;;;;;19.63;13.30;;;;;;;;;;5072424;28;20334;-74
2022/12/11 12:10:43;;;;;;;22.80;15.15;;;;;;;;;;5064472;28;20498;-74
2022/12/11 12:13:26;;;;;;;22.73;14.57;;;;;;;;;;5069253;28;20052;-74
2022/12/11 12:15:55;;;;;;;24.08;14.93;;;;;;;;;;5059776;28;20774;-74
2022/12/11 12:18:21;;;;;;;24.13;14.48;;;;;;;;;;5066830;28;20503;-74
2022/12/11 12:21:03;;;;;;;22.30;14.32;;;;;;;;;;5067555;28;20082;-74
2022/12/11 12:24:05;;;;;;;26.10;15.40;;;;;;;;;;5066107;28;20094;-74
2022/12/11 12:26:32;;;;;;;22.05;13.30;;;;;;;;;;5020293;28;20179;-74
2022/12/11 12:29:08;;;;;;;24.42;14.75;;;;;;;;;;5059704;28;20105;-74
2022/12/11 12:31:43;;;;;;;22.13;14.77;;;;;;;;;;5061634;28;20041;-74
2022/12/11 12:34:21;;;;;;;23.75;15.18;;;;;;;;;;5055648;28;20410;-74
2022/12/11 12:36:54;;;;;;;22.02;13.77;;;;;;;;;;5061137;28;20105;-74
2022/12/11 12:39:38;;;;;;;23.37;14.20;;;;;;;;;;5056719;28;20537;-73
2022/12/11 12:42:24;;;;;;;22.50;13.43;;;;;;;;;;5063965;28;20310;-77
2022/12/11 12:44:58;;;;;;;20.52;14.50;;;;;;;;;;5057096;28;20045;-76
2022/12/11 12:47:25;;;;;;;21.65;14.30;;;;;;;;;;5063987;28;20056;-74
2022/12/11 12:49:52;;;;;;;21.30;14.05;;;;;;;;;;5063944;28;20514;-75
2022/12/11 12:52:24;;;;;;;23.45;14.10;;;;;;;;;;5060187;28;20041;-75
2022/12/11 12:57:39;;;;;;;20.45;14.10;;;;;;;;;;5056159;28;20499;-75
2022/12/11 13:00:07;;;;;;;20.88;14.45;;;;;;;;;;5064104;28;20456;-75
2022/12/11 13:02:33;;;;;;;21.42;14.15;;;;;;;;;;5064056;28;20119;-75
2022/12/11 13:05:02;;;;;;;20.42;13.48;;;;;;;;;;5061639;28;20037;-75
2022/12/11 13:07:31;;;;;;;18.95;13.45;;;;;;;;;;5058917;28;20044;-75
2022/12/11 13:09:57;;;;;;;20.85;14.88;;;;;;;;;;5063098;28;20397;-75
2022/12/11 13:12:31;;;;;;;22.05;15.90;;;;;;;;;;5063026;28;20111;-75
2022/12/11 13:15:00;;;;;;;20.45;14.75;;;;;;;;;;5054429;28;20044;-76
2022/12/11 13:17:37;;;;;;;20.40;14.75;;;;;;;;;;5063404;28;20090;-76
2022/12/11 13:20:13;;;;;;;22.27;15.10;;;;;;;;;;5062911;28;20045;-76
2022/12/11 13:22:47;;;;;;;20.30;14.65;;;;;;;;;;5067053;28;20400;-76
2022/12/11 13:25:19;;;;;;;21.73;14.45;;;;;;;;;;5064285;28;20499;-78
2022/12/11 13:27:45;;;;;;;19.48;14.07;;;;;;;;;;5063655;28;20044;-78
2022/12/11 13:30:14;;;;;;;20.67;14.73;;;;;;;;;;5051229;28;20078;-78
2022/12/11 13:33:01;;;;;;;20.50;14.63;;;;;;;;;;5065860;28;20615;-78
2022/12/11 13:35:28;;;;;;;22.08;15.48;;;;;;;;;;5054204;28;20064;-77
2022/12/11 13:37:55;;;;;;;22.17;14.90;;;;;;;;;;5062262;28;20044;-78
2022/12/11 13:40:24;;;;;;;23.05;15.20;;;;;;;;;;5053364;28;20040;-78
2022/12/11 13:42:52;;;;;;;20.52;14.25;;;;;;;;;;5066786;28;20048;-78
2022/12/11 13:45:21;;;;;;;22.23;14.73;;;;;;;;;;5062261;28;20041;-78
2022/12/11 13:47:47;;;;;;;22.30;15.27;;;;;;;;;;5063867;28;20098;-78
2022/12/11 13:50:30;;;;;;;23.38;17.33;;;;;;;;;;5063726;28;20056;-78
2022/12/11 13:52:57;;;;;;;25.13;18.02;;;;;;;;;;5063559;28;20076;-77
2022/12/11 13:55:28;;;;;;;27.40;19.08;;;;;;;;;;5061460;28;20041;-80
2022/12/11 13:57:58;;;;;;;22.40;16.40;;;;;;;;;;5068067;28;20157;-80
2022/12/11 14:00:25;;;;;;;22.88;16.60;;;;;;;;;;5063906;28;20045;-80
2022/12/11 14:02:52;;;;;;;22.23;16.10;;;;;;;;;;5071481;28;20503;-80
2022/12/11 14:05:18;;;;;;;25.58;18.02;;;;;;;;;;5069100;28;20159;-80
2022/12/11 14:07:52;;;;;;;25.75;17.17;;;;;;;;;;5064352;28;20086;-80
2022/12/11 14:10:26;;;;;;;24.70;16.77;;;;;;;;;;5061304;28;20102;-80
2022/12/11 14:13:04;;;;;;;24.67;16.65;;;;;;;;;;5061573;28;20094;-81
2022/12/11 14:15:31;;;;;;;27.55;17.30;;;;;;;;;;5065265;28;20037;-80
2022/12/11 14:17:58;;;;;;;28.67;18.45;;;;;;;;;;5061043;28;20761;-80
2022/12/11 14:20:28;;;;;;;26.75;17.95;;;;;;;;;;5063019;28;20049;-81
2022/12/11 14:23:24;;;;;;;26.02;18.00;;;;;;;;;;5066477;28;20447;-80
2022/12/11 14:25:57;;;;;;;24.65;18.08;;;;;;;;;;5047543;28;20154;-80
2022/12/11 14:28:26;;;;;;;;;;;;;;;;;;5065598;28;20071;-80
2022/12/11 14:30:53;;;;;;;28.40;19.35;;;;;;;;;;5063955;28;19928;-80
2022/12/11 14:33:24;;;;;;;30.08;20.92;;;;;;;;;;5060899;28;20047;-80
2022/12/11 14:35:52;;;;;;;37.03;26.17;;;;;;;;;;5063232;28;20051;-80
2022/12/11 14:38:30;;;;;;;35.60;25.17;;;;;;;;;;5066446;28;20044;-80
2022/12/11 14:40:59;;;;;;;34.65;24.88;;;;;;;;;;5066345;28;20076;-80